createdAt,value
2023-03-10T00:00:39.249Z,100.00
2023-03-10T00:03:44.891Z,100.00
2023-03-10T00:06:49.361Z,100.00
2023-03-10T00:09:53.969Z,100.00
2023-03-10T00:13:00.189Z,100.00
2023-03-10T00:16:05.761Z,100.00
2023-03-10T00:19:10.373Z,100.00
2023-03-10T00:22:14.870Z,100.00
2023-03-10T00:25:19.506Z,100.00
2023-03-10T00:28:25.608Z,100.00
2023-03-10T00:31:31.617Z,100.00
2023-03-10T00:34:36.148Z,100.00
2023-03-10T00:37:40.617Z,100.00
2023-03-10T00:40:45.332Z,100.00
2023-03-10T00:43:49.896Z,100.00
2023-03-10T00:46:54.919Z,100.00
2023-03-10T00:49:59.754Z,100.00
2023-03-10T00:53:04.390Z,100.00
2023-03-10T00:56:13.572Z,100.00
2023-03-10T00:59:18.102Z,100.00
2023-03-10T01:02:24.232Z,100.00
2023-03-10T01:05:29.970Z,100.00
2023-03-10T01:08:34.458Z,100.00
2023-03-10T01:11:39.117Z,100.00
2023-03-10T01:14:43.649Z,100.00
2023-03-10T01:17:48.199Z,100.00
2023-03-10T01:20:52.747Z,100.00
2023-03-10T01:23:57.753Z,100.00
2023-03-10T01:27:02.335Z,100.00
2023-03-10T01:30:07.422Z,100.00
2023-03-10T01:33:13.229Z,100.00
2023-03-10T01:36:20.924Z,100.00
2023-03-10T01:39:25.442Z,100.00
2023-03-10T01:42:30.904Z,100.00
2023-03-10T01:45:38.697Z,100.00
2023-03-10T01:48:43.364Z,100.00
2023-03-10T01:51:53.691Z,100.00
2023-03-10T01:55:07.775Z,100.00
2023-03-10T01:58:12.926Z,100.00
2023-03-10T02:01:18.268Z,100.00
2023-03-10T02:04:33.090Z,100.00
2023-03-10T02:07:39.367Z,100.00
2023-03-10T02:10:46.437Z,100.00
2023-03-10T02:13:51.150Z,100.00
2023-03-10T02:16:55.692Z,100.00
2023-03-10T02:20:30.723Z,100.00
2023-03-10T02:24:00.234Z,100.00
2023-03-10T02:27:22.810Z,100.00
2023-03-10T02:30:50.124Z,100.00
2023-03-10T02:33:55.780Z,100.00
2023-03-10T02:37:00.507Z,100.00
2023-03-10T02:40:32.369Z,100.00
2023-03-10T02:43:37.794Z,100.00
2023-03-10T02:46:52.254Z,100.00
2023-03-10T02:49:56.941Z,100.00
2023-03-10T02:53:17.659Z,100.00
2023-03-10T02:56:22.555Z,100.00
2023-03-10T02:59:27.940Z,100.00
2023-03-10T03:02:32.874Z,100.00
2023-03-10T03:05:38.613Z,100.00
2023-03-10T03:08:43.595Z,100.00
2023-03-10T03:11:51.889Z,100.00
2023-03-10T03:14:56.437Z,100.00
2023-03-10T03:18:01.959Z,100.00
2023-03-10T03:21:11.253Z,100.00
2023-03-10T03:24:22.927Z,100.00
2023-03-10T03:27:28.142Z,100.00
2023-03-10T03:30:34.077Z,100.00
2023-03-10T03:33:40.784Z,100.00
2023-03-10T03:36:46.682Z,100.00
2023-03-10T03:39:54.587Z,100.00
2023-03-10T03:43:00.994Z,100.00
2023-03-10T03:46:05.949Z,100.00
2023-03-10T03:49:11.362Z,100.00
2023-03-10T03:52:16.094Z,100.00
2023-03-10T03:55:20.747Z,100.00
2023-03-10T03:58:28.085Z,100.00
2023-03-10T04:01:34.010Z,100.00
2023-03-10T04:04:40.950Z,100.00
2023-03-10T04:07:48.145Z,100.00
2023-03-10T04:10:55.243Z,100.00
2023-03-10T04:14:03.220Z,100.00
2023-03-10T04:17:08.876Z,100.00
2023-03-10T04:20:15.452Z,100.00
2023-03-10T04:23:24.250Z,100.00
2023-03-10T04:26:29.656Z,100.00
2023-03-10T04:29:34.825Z,100.00
2023-03-10T04:32:41.018Z,100.00
2023-03-10T04:35:51.331Z,100.00
2023-03-10T04:38:57.975Z,100.00
2023-03-10T04:42:07.244Z,100.00
2023-03-10T04:45:12.942Z,100.00
2023-03-10T04:48:18.931Z,100.00
2023-03-10T04:51:24.998Z,100.00
2023-03-10T04:54:31.895Z,100.00
2023-03-10T04:57:37.062Z,100.00
2023-03-10T05:00:56.431Z,100.00
2023-03-10T05:04:06.546Z,100.00
2023-03-10T05:07:12.585Z,100.00
2023-03-10T05:10:23.072Z,100.00
2023-03-10T05:13:31.709Z,100.00
2023-03-10T05:16:37.153Z,100.00
2023-03-10T05:19:41.784Z,100.00
2023-03-10T05:22:46.395Z,100.00
2023-03-10T05:25:51.238Z,100.00
2023-03-10T05:28:58.122Z,100.00
2023-03-10T05:32:15.423Z,100.00
2023-03-10T05:35:21.875Z,100.00
2023-03-10T05:38:26.681Z,100.00
2023-03-10T05:41:32.971Z,100.00
2023-03-10T05:44:39.048Z,100.00
2023-03-10T05:47:46.525Z,100.00
2023-03-10T05:51:01.937Z,100.00
2023-03-10T05:54:07.452Z,100.00
2023-03-10T05:57:13.987Z,100.00
2023-03-10T06:00:19.760Z,100.00
2023-03-10T06:03:35.643Z,100.00
2023-03-10T06:06:40.179Z,100.00
2023-03-10T06:09:44.722Z,100.00
2023-03-10T06:12:49.263Z,100.00
2023-03-10T06:15:56.362Z,100.00
2023-03-10T06:19:00.850Z,100.00
2023-03-10T06:22:05.408Z,100.00
2023-03-10T06:25:10.289Z,100.00
2023-03-10T06:28:14.790Z,100.00
2023-03-10T06:31:22.716Z,100.00
2023-03-10T06:34:29.301Z,100.00
2023-03-10T06:37:33.963Z,100.00
2023-03-10T06:40:38.502Z,100.00
2023-03-10T06:43:43.507Z,100.00
2023-03-10T06:46:48.062Z,100.00
2023-03-10T06:49:54.706Z,100.00
2023-03-10T06:53:02.219Z,100.00
2023-03-10T06:56:13.017Z,100.00
2023-03-10T06:59:17.908Z,100.00
2023-03-10T07:02:22.485Z,100.00
2023-03-10T07:05:27.615Z,100.00
2023-03-10T07:08:32.211Z,100.00
2023-03-10T07:11:36.764Z,100.00
2023-03-10T07:14:41.284Z,100.00
2023-03-10T07:17:45.831Z,100.00
2023-03-10T07:20:52.962Z,100.00
2023-03-10T07:23:58.546Z,100.00
2023-03-10T07:27:03.690Z,100.00
2023-03-10T07:30:10.779Z,100.00
2023-03-10T07:33:16.840Z,100.00
2023-03-10T07:36:22.360Z,100.00
2023-03-10T07:39:26.943Z,100.00
2023-03-10T07:42:31.512Z,100.00
2023-03-10T07:45:37.965Z,100.00
2023-03-10T07:48:43.940Z,100.00
2023-03-10T07:51:48.487Z,100.00
2023-03-10T07:54:53.019Z,100.00
2023-03-10T07:57:59.586Z,100.00
2023-03-10T08:01:04.562Z,100.00
2023-03-10T08:04:09.259Z,100.00
2023-03-10T08:07:13.895Z,100.00
2023-03-10T08:10:18.687Z,100.00
2023-03-10T08:13:23.308Z,100.00
2023-03-10T08:16:29.074Z,100.00
2023-03-10T08:19:33.742Z,100.00
2023-03-10T08:22:38.271Z,100.00
2023-03-10T08:25:42.755Z,100.00
2023-03-10T08:28:47.812Z,100.00
2023-03-10T08:31:52.465Z,100.00
2023-03-10T08:34:57.066Z,100.00
2023-03-10T08:38:04.490Z,100.00
2023-03-10T08:41:10.221Z,100.00
2023-03-10T08:44:17.667Z,100.00
2023-03-10T08:47:23.381Z,100.00
2023-03-10T08:50:27.876Z,100.00
2023-03-10T08:53:33.994Z,100.00
2023-03-10T08:56:38.536Z,100.00
2023-03-10T08:59:43.052Z,100.00
2023-03-10T09:02:47.711Z,100.00
2023-03-10T09:05:52.486Z,100.00
2023-03-10T09:08:58.238Z,100.00
2023-03-10T09:12:04.245Z,100.00
2023-03-10T09:15:09.063Z,100.00
2023-03-10T09:18:15.926Z,100.00
2023-03-10T09:21:20.742Z,100.00
2023-03-10T09:24:25.466Z,100.00
2023-03-10T09:27:29.946Z,100.00
2023-03-10T09:30:37.402Z,100.00
2023-03-10T09:33:41.943Z,100.00
2023-03-10T09:36:46.972Z,100.00
2023-03-10T09:39:51.806Z,100.00
2023-03-10T09:43:07.941Z,100.00
2023-03-10T09:46:25.785Z,100.00
2023-03-10T09:49:31.050Z,100.00
2023-03-10T09:52:47.444Z,94.77
2023-03-10T09:55:51.917Z,99.49
2023-03-10T09:59:01.603Z,94.04
2023-03-10T10:02:20.117Z,100.00
2023-03-10T10:05:27.257Z,98.69
2023-03-10T10:09:01.842Z,94.66
2023-03-10T10:12:24.964Z,96.92
2023-03-10T10:15:34.243Z,100.00
2023-03-10T10:18:43.387Z,100.00
2023-03-10T10:21:56.435Z,100.00
2023-03-10T10:25:09.776Z,100.00
2023-03-10T10:28:50.943Z,100.00
2023-03-10T10:32:15.736Z,100.00
2023-03-10T10:35:22.033Z,100.00
2023-03-10T10:38:31.597Z,99.49
2023-03-10T10:41:36.276Z,95.39
2023-03-10T10:44:43.084Z,89.38
2023-03-10T10:47:50.070Z,95.45
2023-03-10T10:50:54.659Z,95.65
2023-03-10T10:54:02.449Z,90.06
2023-03-10T10:57:18.734Z,83.76
2023-03-10T11:00:25.284Z,85.78
2023-03-10T11:03:36.990Z,79.53
2023-03-10T11:06:41.526Z,79.97
2023-03-10T11:09:47.820Z,83.28
2023-03-10T11:13:19.766Z,77.68
2023-03-10T11:16:56.876Z,81.43
2023-03-10T11:20:17.368Z,83.04
2023-03-10T11:23:42.362Z,78.75
2023-03-10T11:26:59.153Z,75.58
2023-03-10T11:30:26.001Z,69.92
2023-03-10T11:33:54.027Z,68.10
2023-03-10T11:37:40.194Z,62.99
2023-03-10T11:40:48.571Z,65.82
2023-03-10T11:44:00.963Z,59.38
2023-03-10T11:47:32.924Z,60.61
2023-03-10T11:50:45.733Z,59.20
2023-03-10T11:53:51.259Z,58.45
2023-03-10T11:56:57.636Z,56.57
2023-03-10T12:00:07.913Z,58.92
2023-03-10T12:03:32.644Z,59.66
2023-03-10T12:06:46.096Z,60.61
2023-03-10T12:09:56.785Z,60.58
2023-03-10T12:13:02.001Z,58.32
2023-03-10T12:16:07.591Z,55.80
2023-03-10T12:19:12.542Z,53.74
2023-03-10T12:22:39.039Z,56.87
2023-03-10T12:25:45.657Z,61.14
2023-03-10T12:29:21.900Z,65.07
2023-03-10T12:32:47.216Z,68.16
2023-03-10T12:35:55.750Z,77.50
2023-03-10T12:39:28.499Z,89.44
2023-03-10T12:42:37.233Z,99.61
2023-03-10T12:45:46.024Z,98.63
2023-03-10T12:49:15.374Z,100.00
2023-03-10T12:52:31.777Z,100.00
2023-03-10T12:55:37.371Z,100.00
2023-03-10T12:59:02.797Z,100.00
2023-03-10T13:02:55.774Z,100.00
2023-03-10T13:06:33.008Z,100.00
2023-03-10T13:09:42.318Z,100.00
2023-03-10T13:12:51.098Z,100.00
2023-03-10T13:16:00.974Z,100.00
2023-03-10T13:19:05.921Z,100.00
2023-03-10T13:22:16.886Z,100.00
2023-03-10T13:25:21.728Z,98.07
2023-03-10T13:28:29.838Z,92.44
2023-03-10T13:31:34.851Z,91.52
2023-03-10T13:34:39.462Z,92.99
2023-03-10T13:37:44.261Z,95.86
2023-03-10T13:40:58.705Z,94.60
2023-03-10T13:44:03.710Z,78.45
2023-03-10T13:47:20.895Z,75.11
2023-03-10T13:50:25.576Z,68.04
2023-03-10T13:53:30.316Z,64.29
2023-03-10T13:56:38.013Z,59.32
2023-03-10T13:59:42.864Z,57.52
2023-03-10T14:02:48.986Z,63.33
2023-03-10T14:05:54.121Z,59.11
2023-03-10T14:09:22.331Z,59.60
2023-03-10T14:12:38.992Z,60.84
2023-03-10T14:15:54.206Z,57.53
2023-03-10T14:18:58.921Z,53.32
2023-03-10T14:22:04.318Z,57.13
2023-03-10T14:25:17.342Z,60.62
2023-03-10T14:28:33.397Z,60.61
2023-03-10T14:31:37.947Z,64.00
2023-03-10T14:34:42.705Z,65.38
2023-03-10T14:37:52.016Z,67.53
2023-03-10T14:40:56.916Z,70.10
2023-03-10T14:44:02.035Z,69.92
2023-03-10T14:47:06.866Z,67.96
2023-03-10T14:50:16.795Z,68.44
2023-03-10T14:53:24.647Z,69.16
2023-03-10T14:56:30.334Z,68.89
2023-03-10T14:59:35.415Z,67.72
2023-03-10T15:02:40.074Z,70.18
2023-03-10T15:05:49.077Z,71.80
2023-03-10T15:08:54.154Z,71.95
2023-03-10T15:11:59.830Z,70.84
2023-03-10T15:15:05.222Z,68.29
2023-03-10T15:18:13.199Z,65.24
2023-03-10T15:21:17.750Z,62.61
2023-03-10T15:24:22.339Z,62.05
2023-03-10T15:27:27.967Z,61.45
2023-03-10T15:30:35.791Z,63.39
2023-03-10T15:33:40.347Z,64.59
2023-03-10T15:36:44.945Z,65.41
2023-03-10T15:39:49.608Z,65.88
2023-03-10T15:42:58.273Z,66.07
2023-03-10T15:46:09.706Z,66.63
2023-03-10T15:49:14.506Z,68.54
2023-03-10T15:52:19.268Z,68.17
2023-03-10T15:55:25.370Z,68.26
2023-03-10T15:58:30.124Z,70.81
2023-03-10T16:01:35.326Z,80.56
2023-03-10T16:04:40.225Z,91.52
2023-03-10T16:07:44.804Z,88.63
2023-03-10T16:10:53.796Z,91.91
2023-03-10T16:13:58.600Z,91.08
2023-03-10T16:17:03.152Z,91.69
2023-03-10T16:20:12.193Z,93.07
2023-03-10T16:23:16.892Z,91.75
2023-03-10T16:26:23.105Z,91.94
2023-03-10T16:29:27.835Z,92.45
2023-03-10T16:32:33.782Z,92.34
2023-03-10T16:35:38.938Z,92.36
2023-03-10T16:38:44.051Z,93.81
2023-03-10T16:41:48.675Z,94.08
2023-03-10T16:44:56.808Z,93.31
2023-03-10T16:48:01.720Z,94.71
2023-03-10T16:51:19.519Z,90.75
2023-03-10T16:54:24.284Z,92.78
2023-03-10T16:57:29.125Z,89.24
2023-03-10T17:00:36.960Z,87.75
2023-03-10T17:03:41.928Z,86.81
2023-03-10T17:06:47.414Z,85.94
2023-03-10T17:09:52.132Z,88.83
2023-03-10T17:12:56.976Z,92.13
2023-03-10T17:16:01.535Z,100.00
2023-03-10T17:19:15.717Z,100.00
2023-03-10T17:22:20.403Z,100.00
2023-03-10T17:25:25.016Z,100.00
2023-03-10T17:28:29.732Z,100.00
2023-03-10T17:31:35.043Z,100.00
2023-03-10T17:34:40.521Z,100.00
2023-03-10T17:37:46.673Z,100.00
2023-03-10T17:40:51.355Z,100.00
2023-03-10T17:43:56.327Z,100.00
2023-03-10T17:47:01.130Z,100.00
2023-03-10T17:50:06.141Z,100.00
2023-03-10T17:53:10.760Z,100.00
2023-03-10T17:56:16.532Z,100.00
2023-03-10T17:59:21.233Z,100.00
2023-03-10T18:02:26.014Z,100.00
2023-03-10T18:05:31.050Z,100.00
2023-03-10T18:08:35.846Z,100.00
2023-03-10T18:11:40.608Z,100.00
2023-03-10T18:14:46.519Z,100.00
2023-03-10T18:17:51.445Z,100.00
2023-03-10T18:20:56.315Z,100.00
2023-03-10T18:24:01.124Z,100.00
2023-03-10T18:27:05.956Z,100.00
2023-03-10T18:30:12.288Z,100.00
2023-03-10T18:33:16.964Z,100.00
2023-03-10T18:36:23.344Z,100.00
2023-03-10T18:39:28.504Z,100.00
2023-03-10T18:42:33.243Z,100.00
2023-03-10T18:45:43.824Z,100.00
2023-03-10T18:48:55.258Z,100.00
2023-03-10T18:52:00.130Z,100.00
2023-03-10T18:55:05.415Z,100.00
2023-03-10T18:58:10.469Z,100.00
2023-03-10T19:01:15.501Z,100.00
2023-03-10T19:04:20.528Z,100.00
2023-03-10T19:07:25.164Z,100.00
2023-03-10T19:10:30.179Z,100.00
2023-03-10T19:13:35.824Z,100.00
2023-03-10T19:16:40.784Z,100.00
2023-03-10T19:19:45.590Z,100.00
2023-03-10T19:22:51.361Z,100.00
2023-03-10T19:25:56.442Z,100.00
2023-03-10T19:29:01.049Z,100.00
2023-03-10T19:32:06.696Z,100.00
2023-03-10T19:35:12.585Z,100.00
2023-03-10T19:38:17.655Z,100.00
2023-03-10T19:41:22.472Z,100.00
2023-03-10T19:44:27.494Z,100.00
2023-03-10T19:47:32.310Z,100.00
2023-03-10T19:50:36.941Z,100.00
2023-03-10T19:53:41.477Z,100.00
2023-03-10T19:56:46.317Z,100.00
2023-03-10T19:59:51.049Z,100.00
2023-03-10T20:02:55.734Z,100.00
2023-03-10T20:06:01.545Z,100.00
2023-03-10T20:09:10.405Z,100.00
2023-03-10T20:12:15.630Z,100.00
2023-03-10T20:15:20.551Z,100.00
2023-03-10T20:18:25.381Z,100.00
2023-03-10T20:21:29.975Z,100.00
2023-03-10T20:24:35.294Z,100.00
2023-03-10T20:27:39.966Z,100.00
2023-03-10T20:30:44.547Z,100.00
2023-03-10T20:33:50.046Z,100.00
2023-03-10T20:36:54.866Z,100.00
2023-03-10T20:39:59.616Z,100.00
2023-03-10T20:43:05.644Z,100.00
2023-03-10T20:46:10.824Z,100.00
2023-03-10T20:49:15.415Z,100.00
2023-03-10T20:52:20.167Z,100.00
2023-03-10T20:55:30.796Z,100.00
2023-03-10T20:58:35.412Z,100.00
2023-03-10T21:01:42.451Z,100.00
2023-03-10T21:04:47.494Z,100.00
2023-03-10T21:07:52.218Z,100.00
2023-03-10T21:10:56.967Z,100.00
2023-03-10T21:14:01.748Z,100.00
2023-03-10T21:17:06.896Z,100.00
2023-03-10T21:20:15.783Z,100.00
2023-03-10T21:23:20.595Z,100.00
2023-03-10T21:26:25.118Z,100.00
2023-03-10T21:29:29.893Z,100.00
2023-03-10T21:32:34.847Z,100.00
2023-03-10T21:35:40.343Z,100.00
2023-03-10T21:38:48.666Z,100.00
2023-03-10T21:41:53.402Z,100.00
2023-03-10T21:44:58.188Z,100.00
2023-03-10T21:48:04.075Z,100.00
2023-03-10T21:51:13.198Z,100.00
2023-03-10T21:54:17.986Z,100.00
2023-03-10T21:57:22.568Z,100.00
2023-03-10T22:00:27.256Z,100.00
2023-03-10T22:03:33.850Z,100.00
2023-03-10T22:06:38.778Z,100.00
2023-03-10T22:09:43.518Z,100.00
2023-03-10T22:12:48.548Z,100.00
2023-03-10T22:15:53.337Z,100.00
2023-03-10T22:18:58.129Z,100.00
2023-03-10T22:22:02.856Z,100.00
2023-03-10T22:25:07.982Z,100.00
2023-03-10T22:28:12.719Z,100.00
2023-03-10T22:31:18.379Z,100.00
2023-03-10T22:34:23.343Z,100.00
2023-03-10T22:37:27.954Z,100.00
2023-03-10T22:40:32.870Z,100.00
2023-03-10T22:43:37.520Z,100.00
2023-03-10T22:46:46.937Z,100.00
2023-03-10T22:49:51.807Z,100.00
2023-03-10T22:52:56.369Z,100.00
2023-03-10T22:56:01.434Z,100.00
2023-03-10T22:59:06.123Z,100.00
2023-03-10T23:02:10.863Z,100.00
2023-03-10T23:05:16.766Z,100.00
2023-03-10T23:08:21.557Z,100.00
2023-03-10T23:11:29.915Z,100.00
2023-03-10T23:14:34.753Z,100.00
2023-03-10T23:17:39.261Z,100.00
2023-03-10T23:20:48.560Z,100.00
2023-03-10T23:23:53.324Z,100.00
2023-03-10T23:26:58.006Z,100.00
2023-03-10T23:30:02.728Z,100.00
2023-03-10T23:33:13.370Z,100.00
2023-03-10T23:36:18.048Z,100.00
2023-03-10T23:39:22.739Z,100.00
2023-03-10T23:42:27.384Z,100.00
2023-03-10T23:45:34.801Z,100.00
2023-03-10T23:48:39.539Z,100.00
2023-03-10T23:51:44.118Z,100.00
2023-03-10T23:54:48.673Z,100.00
2023-03-10T23:57:53.883Z,100.00
